sensor_id;sensor_type;location;lat;lon;timestamp;pressure;altitude;pressure_sealevel;temperature;humidity
66176;BME280;52977;44.816;20.538;2023-05-08T00:01:19;99755.81;;;19.71;64.58
66176;BME280;52977;44.816;20.538;2023-05-08T00:03:45;99755.41;;;19.73;64.69
66176;BME280;52977;44.816;20.538;2023-05-08T00:06:11;99751.09;;;19.75;64.05
66176;BME280;52977;44.816;20.538;2023-05-08T00:08:37;99763.84;;;19.84;63.60
66176;BME280;52977;44.816;20.538;2023-05-08T00:11:04;99697.84;;;19.44;63.31
66176;BME280;52977;44.816;20.538;2023-05-08T00:13:29;99767.84;;;19.90;64.26
66176;BME280;52977;44.816;20.538;2023-05-08T00:15:55;99759.28;;;19.61;65.94
66176;BME280;52977;44.816;20.538;2023-05-08T00:18:21;99765.28;;;19.67;65.85
66176;BME280;52977;44.816;20.538;2023-05-08T00:20:47;99774.41;;;19.71;65.91
66176;BME280;52977;44.816;20.538;2023-05-08T00:23:13;99770.47;;;19.72;66.80
66176;BME280;52977;44.816;20.538;2023-05-08T00:25:39;99770.38;;;19.64;67.66
66176;BME280;52977;44.816;20.538;2023-05-08T00:28:06;99766.97;;;19.37;68.85
66176;BME280;52977;44.816;20.538;2023-05-08T00:30:32;99770.72;;;19.15;70.10
66176;BME280;52977;44.816;20.538;2023-05-08T00:32:58;99767.94;;;19.15;70.71
66176;BME280;52977;44.816;20.538;2023-05-08T00:35:24;99759.09;;;19.02;70.40
66176;BME280;52977;44.816;20.538;2023-05-08T00:37:50;99759.47;;;19.00;70.55
66176;BME280;52977;44.816;20.538;2023-05-08T00:40:17;99773.28;;;19.00;71.50
66176;BME280;52977;44.816;20.538;2023-05-08T00:42:43;99771.59;;;18.88;72.38
66176;BME280;52977;44.816;20.538;2023-05-08T00:45:10;99765.88;;;18.77;72.87
66176;BME280;52977;44.816;20.538;2023-05-08T00:47:37;99782.47;;;19.08;71.53
66176;BME280;52977;44.816;20.538;2023-05-08T00:50:04;99775.16;;;19.26;70.36
66176;BME280;52977;44.816;20.538;2023-05-08T00:52:32;99779.66;;;19.04;71.08
66176;BME280;52977;44.816;20.538;2023-05-08T00:55:00;99781.88;;;18.91;71.51
66176;BME280;52977;44.816;20.538;2023-05-08T00:57:28;99738.47;;;18.65;70.95
66176;BME280;52977;44.816;20.538;2023-05-08T00:59:58;99758.75;;;18.76;71.45
66176;BME280;52977;44.816;20.538;2023-05-08T01:02:25;99766.84;;;18.89;71.67
66176;BME280;52977;44.816;20.538;2023-05-08T01:04:52;99692.59;;;18.26;72.74
66176;BME280;52977;44.816;20.538;2023-05-08T01:07:20;99735.25;;;18.59;72.60
66176;BME280;52977;44.816;20.538;2023-05-08T01:09:46;99723.59;;;18.43;73.09
66176;BME280;52977;44.816;20.538;2023-05-08T01:15:04;99785.88;;;18.94;73.94
66176;BME280;52977;44.816;20.538;2023-05-08T01:17:55;99782.41;;;19.01;73.39
66176;BME280;52977;44.816;20.538;2023-05-08T01:20:34;99782.44;;;19.04;73.13
66176;BME280;52977;44.816;20.538;2023-05-08T01:32:23;99801.72;;;18.40;79.71
66176;BME280;52977;44.816;20.538;2023-05-08T01:34:59;99789.44;;;18.37;80.76
66176;BME280;52977;44.816;20.538;2023-05-08T01:37:31;99807.56;;;18.61;79.30
66176;BME280;52977;44.816;20.538;2023-05-08T01:43:30;99866.47;;;18.92;79.41
66176;BME280;52977;44.816;20.538;2023-05-08T01:46:02;99863.84;;;18.76;79.80
66176;BME280;52977;44.816;20.538;2023-05-08T01:48:33;99803.16;;;18.30;79.96
66176;BME280;52977;44.816;20.538;2023-05-08T01:51:12;99856.03;;;18.55;80.54
66176;BME280;52977;44.816;20.538;2023-05-08T01:53:41;99865.22;;;18.36;82.22
66176;BME280;52977;44.816;20.538;2023-05-08T01:56:13;99875.22;;;18.44;82.95
66176;BME280;52977;44.816;20.538;2023-05-08T01:58:42;99862.16;;;18.41;82.91
66176;BME280;52977;44.816;20.538;2023-05-08T02:01:11;99831.75;;;17.91;85.67
66176;BME280;52977;44.816;20.538;2023-05-08T02:03:40;99817.56;;;17.70;87.35
66176;BME280;52977;44.816;20.538;2023-05-08T02:06:09;99827.13;;;17.76;87.77
66176;BME280;52977;44.816;20.538;2023-05-08T02:08:38;99841.44;;;18.05;86.95
66176;BME280;52977;44.816;20.538;2023-05-08T02:11:06;99856.13;;;18.09;86.68
66176;BME280;52977;44.816;20.538;2023-05-08T02:13:34;99857.53;;;18.22;86.63
66176;BME280;52977;44.816;20.538;2023-05-08T02:16:01;99864.41;;;18.09;87.27
66176;BME280;52977;44.816;20.538;2023-05-08T02:18:28;99865.63;;;18.12;87.88
66176;BME280;52977;44.816;20.538;2023-05-08T02:20:58;99848.41;;;17.75;89.14
66176;BME280;52977;44.816;20.538;2023-05-08T02:23:25;99869.38;;;17.80;90.30
66176;BME280;52977;44.816;20.538;2023-05-08T02:25:52;99869.38;;;17.80;91.44
66176;BME280;52977;44.816;20.538;2023-05-08T02:28:19;99840.59;;;17.58;91.86
66176;BME280;52977;44.816;20.538;2023-05-08T02:30:47;99866.78;;;17.68;92.78
66176;BME280;52977;44.816;20.538;2023-05-08T02:33:15;99880.31;;;17.73;93.90
66176;BME280;52977;44.816;20.538;2023-05-08T02:35:43;99882.44;;;17.60;94.69
66176;BME280;52977;44.816;20.538;2023-05-08T02:38:11;99858.13;;;17.46;97.34
66176;BME280;52977;44.816;20.538;2023-05-08T02:40:45;99833.47;;;17.14;99.77
66176;BME280;52977;44.816;20.538;2023-05-08T02:43:12;99881.97;;;17.35;100.00
66176;BME280;52977;44.816;20.538;2023-05-08T02:45:44;99874.41;;;17.32;100.00
66176;BME280;52977;44.816;20.538;2023-05-08T02:48:17;99865.69;;;17.30;100.00
66176;BME280;52977;44.816;20.538;2023-05-08T02:50:56;99868.66;;;17.40;100.00
66176;BME280;52977;44.816;20.538;2023-05-08T02:53:36;99862.13;;;17.49;100.00
66176;BME280;52977;44.816;20.538;2023-05-08T02:56:36;99873.94;;;17.49;99.91
66176;BME280;52977;44.816;20.538;2023-05-08T02:59:15;99869.44;;;17.41;99.05
66176;BME280;52977;44.816;20.538;2023-05-08T03:01:58;99868.44;;;17.30;99.16
66176;BME280;52977;44.816;20.538;2023-05-08T03:04:33;99819.97;;;16.89;96.54
66176;BME280;52977;44.816;20.538;2023-05-08T03:07:01;99818.19;;;16.81;93.96
66176;BME280;52977;44.816;20.538;2023-05-08T03:09:49;99864.03;;;17.05;92.08
66176;BME280;52977;44.816;20.538;2023-05-08T03:12:23;99835.44;;;16.78;91.93
66176;BME280;52977;44.816;20.538;2023-05-08T03:15:33;99858.09;;;16.52;93.86
66176;BME280;52977;44.816;20.538;2023-05-08T03:18:05;99798.97;;;16.14;93.37
66176;BME280;52977;44.816;20.538;2023-05-08T03:20:36;99772.06;;;16.07;90.75
66176;BME280;52977;44.816;20.538;2023-05-08T03:23:05;99852.03;;;16.11;94.38
66176;BME280;52977;44.816;20.538;2023-05-08T03:25:34;99872.34;;;16.22;94.58
66176;BME280;52977;44.816;20.538;2023-05-08T03:28:03;99865.97;;;16.18;95.49
66176;BME280;52977;44.816;20.538;2023-05-08T03:30:32;99870.22;;;16.15;94.93
66176;BME280;52977;44.816;20.538;2023-05-08T03:33:06;99866.75;;;16.18;93.28
66176;BME280;52977;44.816;20.538;2023-05-08T03:35:37;99900.25;;;16.52;91.56
66176;BME280;52977;44.816;20.538;2023-05-08T03:38:05;99907.19;;;16.30;92.69
66176;BME280;52977;44.816;20.538;2023-05-08T03:40:35;99831.03;;;15.74;93.54
66176;BME280;52977;44.816;20.538;2023-05-08T03:43:07;99908.78;;;16.31;91.14
66176;BME280;52977;44.816;20.538;2023-05-08T03:45:36;99887.66;;;16.03;91.44
66176;BME280;52977;44.816;20.538;2023-05-08T03:48:04;99938.44;;;16.38;90.49
66176;BME280;52977;44.816;20.538;2023-05-08T03:50:34;99948.22;;;16.03;93.40
66176;BME280;52977;44.816;20.538;2023-05-08T03:53:01;99947.16;;;16.08;93.40
66176;BME280;52977;44.816;20.538;2023-05-08T03:55:29;99912.63;;;15.54;95.41
66176;BME280;52977;44.816;20.538;2023-05-08T04:00:51;99924.06;;;15.68;95.63
66176;BME280;52977;44.816;20.538;2023-05-08T04:08:46;99875.47;;;15.60;93.87
66176;BME280;52977;44.816;20.538;2023-05-08T04:11:25;99974.44;;;16.13;93.85
66176;BME280;52977;44.816;20.538;2023-05-08T04:14:02;99969.63;;;16.26;92.23
66176;BME280;52977;44.816;20.538;2023-05-08T04:16:34;99979.81;;;16.10;92.93
66176;BME280;52977;44.816;20.538;2023-05-08T04:19:09;99987.41;;;15.84;94.21
66176;BME280;52977;44.816;20.538;2023-05-08T04:21:36;99952.47;;;15.32;96.44
66176;BME280;52977;44.816;20.538;2023-05-08T04:24:06;99990.03;;;15.40;98.59
66176;BME280;52977;44.816;20.538;2023-05-08T04:26:33;99992.00;;;15.40;98.18
66176;BME280;52977;44.816;20.538;2023-05-08T04:29:00;99995.53;;;15.52;97.26
66176;BME280;52977;44.816;20.538;2023-05-08T04:31:26;99960.38;;;15.33;96.68
66176;BME280;52977;44.816;20.538;2023-05-08T04:33:53;99998.94;;;15.62;96.59
66176;BME280;52977;44.816;20.538;2023-05-08T04:36:18;99984.50;;;15.52;95.29
66176;BME280;52977;44.816;20.538;2023-05-08T04:38:44;100005.38;;;15.53;95.34
66176;BME280;52977;44.816;20.538;2023-05-08T04:41:11;99986.88;;;15.26;96.97
66176;BME280;52977;44.816;20.538;2023-05-08T04:43:37;100012.41;;;15.38;96.95
66176;BME280;52977;44.816;20.538;2023-05-08T04:46:05;100002.91;;;15.24;96.63
66176;BME280;52977;44.816;20.538;2023-05-08T04:48:31;99947.16;;;14.86;98.16
66176;BME280;52977;44.816;20.538;2023-05-08T04:50:58;99973.75;;;14.82;99.09
66176;BME280;52977;44.816;20.538;2023-05-08T04:53:25;99969.75;;;14.67;99.94
66176;BME280;52977;44.816;20.538;2023-05-08T04:55:51;99974.41;;;14.54;100.00
66176;BME280;52977;44.816;20.538;2023-05-08T04:58:17;99987.84;;;14.68;100.00
66176;BME280;52977;44.816;20.538;2023-05-08T05:00:43;99975.97;;;14.43;100.00
66176;BME280;52977;44.816;20.538;2023-05-08T05:03:08;100014.84;;;14.78;100.00
66176;BME280;52977;44.816;20.538;2023-05-08T05:05:34;99980.47;;;14.60;100.00
66176;BME280;52977;44.816;20.538;2023-05-08T05:08:00;100023.16;;;14.57;100.00
66176;BME280;52977;44.816;20.538;2023-05-08T05:10:26;100010.06;;;14.29;100.00
66176;BME280;52977;44.816;20.538;2023-05-08T05:12:52;100000.22;;;14.28;100.00
66176;BME280;52977;44.816;20.538;2023-05-08T05:15:18;100027.25;;;14.51;100.00
66176;BME280;52977;44.816;20.538;2023-05-08T05:17:44;100044.44;;;14.48;100.00
66176;BME280;52977;44.816;20.538;2023-05-08T05:20:10;100033.22;;;14.41;100.00
66176;BME280;52977;44.816;20.538;2023-05-08T05:22:37;100029.34;;;14.54;100.00
66176;BME280;52977;44.816;20.538;2023-05-08T05:25:03;100035.97;;;14.53;100.00
66176;BME280;52977;44.816;20.538;2023-05-08T05:27:30;99975.72;;;14.23;100.00
66176;BME280;52977;44.816;20.538;2023-05-08T05:29:57;100039.88;;;14.52;100.00
66176;BME280;52977;44.816;20.538;2023-05-08T05:32:24;99987.16;;;14.13;100.00
66176;BME280;52977;44.816;20.538;2023-05-08T05:34:51;100016.50;;;14.33;100.00
66176;BME280;52977;44.816;20.538;2023-05-08T05:37:19;100024.03;;;14.36;100.00
66176;BME280;52977;44.816;20.538;2023-05-08T05:39:45;100028.16;;;14.43;100.00
66176;BME280;52977;44.816;20.538;2023-05-08T05:42:11;100029.72;;;14.65;100.00
66176;BME280;52977;44.816;20.538;2023-05-08T05:44:37;100044.28;;;14.65;98.47
66176;BME280;52977;44.816;20.538;2023-05-08T05:47:03;100046.19;;;14.65;99.61
66176;BME280;52977;44.816;20.538;2023-05-08T05:49:35;100050.13;;;14.64;99.24
66176;BME280;52977;44.816;20.538;2023-05-08T05:52:02;100069.66;;;14.62;100.00
66176;BME280;52977;44.816;20.538;2023-05-08T05:54:27;100061.22;;;14.67;99.12
66176;BME280;52977;44.816;20.538;2023-05-08T05:56:54;100076.41;;;14.31;100.00
66176;BME280;52977;44.816;20.538;2023-05-08T05:59:19;100018.75;;;13.98;100.00
66176;BME280;52977;44.816;20.538;2023-05-08T06:01:45;99973.69;;;13.87;100.00
66176;BME280;52977;44.816;20.538;2023-05-08T06:04:11;100032.69;;;14.14;100.00
66176;BME280;52977;44.816;20.538;2023-05-08T06:06:38;100047.19;;;14.14;99.87
66176;BME280;52977;44.816;20.538;2023-05-08T06:09:03;100067.88;;;14.12;100.00
66176;BME280;52977;44.816;20.538;2023-05-08T06:11:31;100060.56;;;13.82;100.00
66176;BME280;52977;44.816;20.538;2023-05-08T06:13:56;100073.41;;;13.91;100.00
66176;BME280;52977;44.816;20.538;2023-05-08T06:16:22;100077.59;;;13.67;100.00
66176;BME280;52977;44.816;20.538;2023-05-08T06:18:49;100080.69;;;13.65;100.00
66176;BME280;52977;44.816;20.538;2023-05-08T06:21:15;100086.84;;;13.83;100.00
66176;BME280;52977;44.816;20.538;2023-05-08T06:23:41;100086.31;;;13.69;100.00
66176;BME280;52977;44.816;20.538;2023-05-08T06:26:07;100051.03;;;13.38;100.00
66176;BME280;52977;44.816;20.538;2023-05-08T06:28:32;100098.47;;;13.38;100.00
66176;BME280;52977;44.816;20.538;2023-05-08T06:30:58;100107.41;;;13.18;100.00
66176;BME280;52977;44.816;20.538;2023-05-08T06:33:24;100111.25;;;12.87;100.00
66176;BME280;52977;44.816;20.538;2023-05-08T06:35:50;100102.09;;;12.65;100.00
66176;BME280;52977;44.816;20.538;2023-05-08T06:38:16;100126.38;;;12.84;100.00
66176;BME280;52977;44.816;20.538;2023-05-08T06:40:44;100090.25;;;12.43;100.00
66176;BME280;52977;44.816;20.538;2023-05-08T06:43:11;100111.34;;;12.52;100.00
66176;BME280;52977;44.816;20.538;2023-05-08T06:45:38;100137.03;;;12.77;100.00
66176;BME280;52977;44.816;20.538;2023-05-08T06:48:05;100125.00;;;12.60;100.00
66176;BME280;52977;44.816;20.538;2023-05-08T06:50:31;100098.13;;;12.27;100.00
66176;BME280;52977;44.816;20.538;2023-05-08T06:52:57;99996.13;;;11.48;100.00
66176;BME280;52977;44.816;20.538;2023-05-08T06:55:23;100146.28;;;12.37;100.00
66176;BME280;52977;44.816;20.538;2023-05-08T06:57:49;100117.78;;;12.12;100.00
66176;BME280;52977;44.816;20.538;2023-05-08T07:00:16;100142.09;;;12.22;100.00
66176;BME280;52977;44.816;20.538;2023-05-08T07:02:42;100139.22;;;12.19;100.00
66176;BME280;52977;44.816;20.538;2023-05-08T07:05:08;100136.00;;;12.25;100.00
66176;BME280;52977;44.816;20.538;2023-05-08T07:07:34;100144.97;;;12.35;100.00
66176;BME280;52977;44.816;20.538;2023-05-08T07:10:02;100150.31;;;12.31;100.00
66176;BME280;52977;44.816;20.538;2023-05-08T07:12:28;100142.09;;;12.31;100.00
66176;BME280;52977;44.816;20.538;2023-05-08T07:14:54;100149.31;;;12.44;100.00
66176;BME280;52977;44.816;20.538;2023-05-08T07:17:20;100140.00;;;12.37;100.00
66176;BME280;52977;44.816;20.538;2023-05-08T07:19:49;100155.75;;;12.48;100.00
66176;BME280;52977;44.816;20.538;2023-05-08T07:22:15;100159.78;;;12.51;100.00
66176;BME280;52977;44.816;20.538;2023-05-08T07:24:41;100114.09;;;12.08;100.00
66176;BME280;52977;44.816;20.538;2023-05-08T07:27:07;100160.94;;;12.33;100.00
66176;BME280;52977;44.816;20.538;2023-05-08T07:29:34;100105.84;;;11.73;100.00
66176;BME280;52977;44.816;20.538;2023-05-08T07:32:01;100158.50;;;12.13;100.00
66176;BME280;52977;44.816;20.538;2023-05-08T07:34:27;100118.06;;;11.93;100.00
66176;BME280;52977;44.816;20.538;2023-05-08T07:36:53;100135.63;;;11.92;100.00
66176;BME280;52977;44.816;20.538;2023-05-08T07:39:20;100166.41;;;12.15;100.00
66176;BME280;52977;44.816;20.538;2023-05-08T07:41:47;100160.13;;;12.06;100.00
66176;BME280;52977;44.816;20.538;2023-05-08T07:44:13;100163.97;;;12.22;100.00
66176;BME280;52977;44.816;20.538;2023-05-08T07:46:39;100138.88;;;11.94;100.00
66176;BME280;52977;44.816;20.538;2023-05-08T07:49:06;100153.88;;;12.14;100.00
66176;BME280;52977;44.816;20.538;2023-05-08T07:51:32;100154.81;;;12.09;100.00
66176;BME280;52977;44.816;20.538;2023-05-08T07:53:58;100177.19;;;12.11;100.00
66176;BME280;52977;44.816;20.538;2023-05-08T07:56:25;100166.41;;;12.15;100.00
66176;BME280;52977;44.816;20.538;2023-05-08T07:58:52;100099.38;;;11.60;100.00
66176;BME280;52977;44.816;20.538;2023-05-08T08:01:18;100174.22;;;11.82;100.00
66176;BME280;52977;44.816;20.538;2023-05-08T08:03:45;100179.69;;;11.82;100.00
66176;BME280;52977;44.816;20.538;2023-05-08T08:06:11;100176.16;;;11.72;100.00
66176;BME280;52977;44.816;20.538;2023-05-08T08:08:37;100127.28;;;11.31;100.00
66176;BME280;52977;44.816;20.538;2023-05-08T08:11:05;100167.91;;;11.63;100.00
66176;BME280;52977;44.816;20.538;2023-05-08T08:13:31;100087.06;;;11.14;100.00
66176;BME280;52977;44.816;20.538;2023-05-08T08:15:58;100184.38;;;11.81;100.00
66176;BME280;52977;44.816;20.538;2023-05-08T08:18:25;100182.28;;;11.78;100.00
66176;BME280;52977;44.816;20.538;2023-05-08T08:20:51;100146.69;;;11.69;100.00
66176;BME280;52977;44.816;20.538;2023-05-08T08:23:17;100191.03;;;12.06;100.00
66176;BME280;52977;44.816;20.538;2023-05-08T08:25:43;100187.59;;;11.92;100.00
66176;BME280;52977;44.816;20.538;2023-05-08T08:28:09;100173.44;;;11.90;100.00
66176;BME280;52977;44.816;20.538;2023-05-08T08:30:36;100197.41;;;11.93;100.00
66176;BME280;52977;44.816;20.538;2023-05-08T08:33:02;100190.47;;;11.87;100.00
66176;BME280;52977;44.816;20.538;2023-05-08T08:35:28;100093.00;;;11.16;100.00
66176;BME280;52977;44.816;20.538;2023-05-08T08:37:55;100210.84;;;11.63;100.00
66176;BME280;52977;44.816;20.538;2023-05-08T08:40:22;100209.34;;;11.48;100.00
66176;BME280;52977;44.816;20.538;2023-05-08T08:42:48;100213.28;;;11.73;100.00
66176;BME280;52977;44.816;20.538;2023-05-08T08:45:14;100186.72;;;11.65;100.00
66176;BME280;52977;44.816;20.538;2023-05-08T08:47:43;100139.25;;;11.12;100.00
66176;BME280;52977;44.816;20.538;2023-05-08T08:50:12;100200.97;;;11.44;100.00
66176;BME280;52977;44.816;20.538;2023-05-08T08:55:10;100188.91;;;11.45;100.00
66176;BME280;52977;44.816;20.538;2023-05-08T08:57:46;100179.88;;;11.36;100.00
66176;BME280;52977;44.816;20.538;2023-05-08T09:00:15;100212.94;;;11.26;100.00
66176;BME280;52977;44.816;20.538;2023-05-08T09:02:42;100155.97;;;10.79;100.00
66176;BME280;52977;44.816;20.538;2023-05-08T09:05:09;100209.19;;;11.13;100.00
66176;BME280;52977;44.816;20.538;2023-05-08T09:07:36;100169.44;;;10.75;100.00
66176;BME280;52977;44.816;20.538;2023-05-08T09:10:05;100174.03;;;10.89;100.00
66176;BME280;52977;44.816;20.538;2023-05-08T09:12:32;100169.25;;;10.94;100.00
66176;BME280;52977;44.816;20.538;2023-05-08T09:14:58;100211.34;;;11.25;100.00
66176;BME280;52977;44.816;20.538;2023-05-08T09:17:24;100191.44;;;11.02;100.00
66176;BME280;52977;44.816;20.538;2023-05-08T09:19:51;100176.50;;;10.99;100.00
66176;BME280;52977;44.816;20.538;2023-05-08T09:22:18;100159.56;;;10.88;100.00
66176;BME280;52977;44.816;20.538;2023-05-08T09:24:56;100219.03;;;11.23;100.00
66176;BME280;52977;44.816;20.538;2023-05-08T09:27:27;100210.00;;;11.14;100.00
66176;BME280;52977;44.816;20.538;2023-05-08T09:30:02;100172.25;;;10.84;100.00
66176;BME280;52977;44.816;20.538;2023-05-08T09:32:30;100217.69;;;11.11;100.00
66176;BME280;52977;44.816;20.538;2023-05-08T09:34:57;100229.88;;;11.05;100.00
66176;BME280;52977;44.816;20.538;2023-05-08T09:37:24;100219.31;;;11.13;100.00
66176;BME280;52977;44.816;20.538;2023-05-08T09:39:52;100235.19;;;11.10;100.00
66176;BME280;52977;44.816;20.538;2023-05-08T09:42:18;100210.53;;;10.93;100.00
66176;BME280;52977;44.816;20.538;2023-05-08T09:44:51;100232.03;;;11.17;100.00
66176;BME280;52977;44.816;20.538;2023-05-08T09:47:24;100171.25;;;10.80;100.00
66176;BME280;52977;44.816;20.538;2023-05-08T09:50:06;100232.91;;;11.26;100.00
66176;BME280;52977;44.816;20.538;2023-05-08T09:52:34;100242.13;;;11.39;100.00
66176;BME280;52977;44.816;20.538;2023-05-08T09:55:04;100243.06;;;11.35;100.00
66176;BME280;52977;44.816;20.538;2023-05-08T09:57:32;100250.50;;;11.43;100.00
66176;BME280;52977;44.816;20.538;2023-05-08T10:02:33;100218.16;;;11.36;100.00
66176;BME280;52977;44.816;20.538;2023-05-08T10:04:59;100253.72;;;11.45;100.00
66176;BME280;52977;44.816;20.538;2023-05-08T10:07:31;100229.81;;;11.19;100.00
66176;BME280;52977;44.816;20.538;2023-05-08T10:09:59;100139.59;;;10.34;100.00
66176;BME280;52977;44.816;20.538;2023-05-08T10:12:26;100251.91;;;11.09;100.00
66176;BME280;52977;44.816;20.538;2023-05-08T10:14:53;100238.56;;;11.07;100.00
66176;BME280;52977;44.816;20.538;2023-05-08T10:17:25;100242.47;;;11.15;100.00
66176;BME280;52977;44.816;20.538;2023-05-08T10:19:59;100244.47;;;11.23;100.00
66176;BME280;52977;44.816;20.538;2023-05-08T10:22:30;100244.47;;;11.23;100.00
66176;BME280;52977;44.816;20.538;2023-05-08T10:24:59;100245.56;;;11.22;100.00
66176;BME280;52977;44.816;20.538;2023-05-08T10:27:46;100226.59;;;11.26;100.00
66176;BME280;52977;44.816;20.538;2023-05-08T10:30:16;100225.00;;;11.25;100.00
66176;BME280;52977;44.816;20.538;2023-05-08T10:32:43;100132.97;;;10.71;100.00
66176;BME280;52977;44.816;20.538;2023-05-08T10:35:10;100255.66;;;11.44;100.00
66176;BME280;52977;44.816;20.538;2023-05-08T10:37:38;100253.72;;;11.45;100.00
66176;BME280;52977;44.816;20.538;2023-05-08T10:40:05;100243.00;;;11.57;100.00
66176;BME280;52977;44.816;20.538;2023-05-08T10:42:32;100202.84;;;11.26;100.00
66176;BME280;52977;44.816;20.538;2023-05-08T10:45:02;100256.88;;;11.61;100.00
66176;BME280;52977;44.816;20.538;2023-05-08T10:47:39;100250.81;;;11.41;100.00
66176;BME280;52977;44.816;20.538;2023-05-08T10:50:21;100248.91;;;11.51;100.00
66176;BME280;52977;44.816;20.538;2023-05-08T10:52:58;100156.19;;;11.23;100.00
66176;BME280;52977;44.816;20.538;2023-05-08T10:55:29;100240.69;;;11.91;100.00
66176;BME280;52977;44.816;20.538;2023-05-08T11:03:19;100239.03;;;12.30;100.00
66176;BME280;52977;44.816;20.538;2023-05-08T11:05:47;100256.44;;;12.52;100.00
66176;BME280;52977;44.816;20.538;2023-05-08T11:08:16;100237.59;;;12.33;100.00
66176;BME280;52977;44.816;20.538;2023-05-08T11:10:47;100254.00;;;12.33;100.00
66176;BME280;52977;44.816;20.538;2023-05-08T11:13:17;100254.16;;;12.36;100.00
66176;BME280;52977;44.816;20.538;2023-05-08T11:15:49;100250.81;;;12.48;100.00
66176;BME280;52977;44.816;20.538;2023-05-08T11:18:16;100244.66;;;12.60;100.00
66176;BME280;52977;44.816;20.538;2023-05-08T11:21:03;100247.09;;;12.70;100.00
66176;BME280;52977;44.816;20.538;2023-05-08T11:26:05;100234.97;;;12.97;98.60
66176;BME280;52977;44.816;20.538;2023-05-08T11:28:36;100248.81;;;13.10;99.09
66176;BME280;52977;44.816;20.538;2023-05-08T11:31:04;100230.72;;;13.26;96.85
66176;BME280;52977;44.816;20.538;2023-05-08T11:33:32;100231.00;;;13.33;97.34
66176;BME280;52977;44.816;20.538;2023-05-08T11:38:41;100209.13;;;13.25;98.02
66176;BME280;52977;44.816;20.538;2023-05-08T11:41:08;100225.84;;;13.49;98.17
66176;BME280;52977;44.816;20.538;2023-05-08T11:46:16;100201.06;;;13.67;94.87
66176;BME280;52977;44.816;20.538;2023-05-08T11:48:42;100202.72;;;13.89;92.46
66176;BME280;52977;44.816;20.538;2023-05-08T11:51:09;100234.41;;;14.08;92.47
66176;BME280;52977;44.816;20.538;2023-05-08T11:53:36;100229.06;;;14.11;90.66
66176;BME280;52977;44.816;20.538;2023-05-08T11:56:02;100236.69;;;14.06;93.45
66176;BME280;52977;44.816;20.538;2023-05-08T11:58:28;100180.91;;;13.63;95.80
66176;BME280;52977;44.816;20.538;2023-05-08T12:00:54;100177.38;;;13.62;96.60
66176;BME280;52977;44.816;20.538;2023-05-08T12:03:23;100206.88;;;13.95;94.21
66176;BME280;52977;44.816;20.538;2023-05-08T12:05:50;100221.59;;;14.12;93.58
66176;BME280;52977;44.816;20.538;2023-05-08T12:08:17;100234.22;;;14.34;91.62
66176;BME280;52977;44.816;20.538;2023-05-08T12:15:48;100226.88;;;15.01;88.69
66176;BME280;52977;44.816;20.538;2023-05-08T12:18:15;100209.66;;;14.92;90.30
66176;BME280;52977;44.816;20.538;2023-05-08T12:20:42;100157.16;;;14.73;92.21
66176;BME280;52977;44.816;20.538;2023-05-08T12:23:08;100201.56;;;15.08;90.59
66176;BME280;52977;44.816;20.538;2023-05-08T12:25:37;100209.78;;;14.96;93.68
66176;BME280;52977;44.816;20.538;2023-05-08T12:28:07;100148.13;;;14.72;91.86
66176;BME280;52977;44.816;20.538;2023-05-08T12:30:34;100191.41;;;15.21;91.61
66176;BME280;52977;44.816;20.538;2023-05-08T12:33:00;100198.41;;;15.43;91.92
66176;BME280;52977;44.816;20.538;2023-05-08T12:35:27;100199.69;;;15.58;90.63
66176;BME280;52977;44.816;20.538;2023-05-08T12:37:53;100155.56;;;15.42;89.37
66176;BME280;52977;44.816;20.538;2023-05-08T12:40:25;100135.03;;;15.27;91.10
66176;BME280;52977;44.816;20.538;2023-05-08T12:42:51;100176.88;;;15.58;92.65
66176;BME280;52977;44.816;20.538;2023-05-08T12:45:17;100182.13;;;15.63;93.82
66176;BME280;52977;44.816;20.538;2023-05-08T12:47:50;100184.88;;;15.75;93.66
66176;BME280;52977;44.816;20.538;2023-05-08T12:50:18;100187.09;;;15.82;91.39
66176;BME280;52977;44.816;20.538;2023-05-08T12:52:45;100183.28;;;15.74;92.97
66176;BME280;52977;44.816;20.538;2023-05-08T12:55:25;100187.22;;;15.85;92.27
66176;BME280;52977;44.816;20.538;2023-05-08T12:58:17;100184.53;;;16.01;91.91
66176;BME280;52977;44.816;20.538;2023-05-08T13:00:45;100152.69;;;15.88;92.09
66176;BME280;52977;44.816;20.538;2023-05-08T13:03:19;100179.78;;;16.14;93.18
66176;BME280;52977;44.816;20.538;2023-05-08T13:05:45;100179.75;;;16.27;89.30
66176;BME280;52977;44.816;20.538;2023-05-08T13:08:11;100153.31;;;16.10;88.83
66176;BME280;52977;44.816;20.538;2023-05-08T13:10:53;100145.00;;;16.22;87.74
66176;BME280;52977;44.816;20.538;2023-05-08T13:13:20;100159.25;;;16.52;86.83
66176;BME280;52977;44.816;20.538;2023-05-08T13:15:47;100165.41;;;16.62;88.32
66176;BME280;52977;44.816;20.538;2023-05-08T13:18:13;100157.84;;;16.58;87.75
66176;BME280;52977;44.816;20.538;2023-05-08T13:20:39;100167.78;;;16.63;87.77
66176;BME280;52977;44.816;20.538;2023-05-08T13:23:06;100155.00;;;16.55;87.46
66176;BME280;52977;44.816;20.538;2023-05-08T13:25:32;100170.66;;;16.67;84.84
66176;BME280;52977;44.816;20.538;2023-05-08T13:27:58;100153.69;;;16.65;86.69
66176;BME280;52977;44.816;20.538;2023-05-08T13:30:24;100159.19;;;16.93;81.70
66176;BME280;52977;44.816;20.538;2023-05-08T13:32:51;100158.09;;;16.98;79.87